Combe Martin, United Kingdom
Current Conditions -  °F | °C
As of 9:50 PM on Thursday 18 Dec 2014 (Local Time) from EGDX Reporting Station
Light Rain Light Rain  
Wind Chill: 52°   Ceiling: 300
Heat Index: 52°   Visibility: 5mi
Dew Point: 52°   Wind: 25mph
Humidity: 100%   Direction: 240°WSW
Pressure: 29.83"   Gusts: NA
Location:  51.2°N, 4.02°W
Report Text: EGDX 182150Z AUTO 24022KT 8000 -RA OVC003/// 11/11 Q1010
Loading
Personal Weather Stations






























Interactive Weather Map New forecast layout! Learn more

10-Day Weather Forecast

Advertisements
Track Severe Weather on mobile